createdAt,value
2023-04-11T00:00:25.850Z,30.95
2023-04-11T00:03:13.704Z,30.65
2023-04-11T00:05:42.255Z,31.01
2023-04-11T00:08:10.460Z,30.99
2023-04-11T00:10:38.915Z,30.83
2023-04-11T00:13:07.513Z,31.02
2023-04-11T00:15:36.326Z,30.90
2023-04-11T00:18:04.462Z,31.37
2023-04-11T00:20:34.415Z,30.66
2023-04-11T00:23:02.667Z,31.22
2023-04-11T00:25:31.641Z,31.33
2023-04-11T00:27:59.828Z,31.59
2023-04-11T00:30:28.210Z,31.42
2023-04-11T00:32:56.573Z,31.42
2023-04-11T00:35:25.228Z,31.32
2023-04-11T00:37:56.370Z,31.05
2023-04-11T00:40:25.096Z,31.32
2023-04-11T00:42:53.291Z,31.46
2023-04-11T00:45:21.834Z,31.71
2023-04-11T00:47:50.821Z,31.38
2023-04-11T00:50:22.116Z,31.60
2023-04-11T00:52:51.517Z,31.44
2023-04-11T00:55:21.736Z,31.32
2023-04-11T00:57:49.957Z,32.10
2023-04-11T01:00:18.607Z,31.92
2023-04-11T01:02:46.952Z,31.71
2023-04-11T01:05:16.582Z,31.62
2023-04-11T01:07:47.026Z,31.88
2023-04-11T01:10:16.463Z,31.89
2023-04-11T01:12:46.906Z,31.55
2023-04-11T01:15:15.363Z,31.96
2023-04-11T01:17:43.616Z,31.96
2023-04-11T01:20:13.523Z,31.89
2023-04-11T01:22:42.897Z,32.01
2023-04-11T01:25:13.744Z,31.46
2023-04-11T01:27:42.359Z,32.16
2023-04-11T01:30:12.532Z,31.85
2023-04-11T01:32:40.774Z,32.27
2023-04-11T01:35:10.535Z,31.98
2023-04-11T01:37:38.689Z,32.25
2023-04-11T01:40:08.865Z,32.13
2023-04-11T01:42:38.981Z,31.47
2023-04-11T01:45:08.392Z,31.50
2023-04-11T01:47:37.553Z,31.60
2023-04-11T01:50:07.401Z,31.59
2023-04-11T01:52:35.504Z,31.73
2023-04-11T01:55:04.044Z,31.77
2023-04-11T01:57:33.090Z,31.98
2023-04-11T02:00:05.988Z,31.73
2023-04-11T02:02:34.153Z,32.39
2023-04-11T02:05:03.525Z,31.90
2023-04-11T02:07:31.749Z,32.20
2023-04-11T02:10:00.305Z,32.12
2023-04-11T02:12:28.501Z,32.29
2023-04-11T02:14:57.014Z,31.91
2023-04-11T02:17:30.990Z,31.89
2023-04-11T02:19:59.576Z,32.30
2023-04-11T02:22:27.867Z,31.88
2023-04-11T02:24:56.292Z,32.23
2023-04-11T02:27:24.568Z,31.96
2023-04-11T02:29:52.984Z,31.79
2023-04-11T02:32:21.302Z,31.87
2023-04-11T02:34:51.593Z,31.44
2023-04-11T02:37:19.775Z,31.86
2023-04-11T02:39:48.224Z,32.04
2023-04-11T02:42:16.412Z,32.10
2023-04-11T02:44:44.928Z,31.86
2023-04-11T02:47:13.070Z,31.70
2023-04-11T02:49:42.472Z,31.59
2023-04-11T02:52:12.058Z,31.47
2023-04-11T02:54:40.611Z,31.72
2023-04-11T02:57:08.758Z,32.11
2023-04-11T02:59:37.205Z,31.83
2023-04-11T03:02:05.617Z,32.40
2023-04-11T03:04:34.103Z,32.82
2023-04-11T03:07:02.302Z,32.54
2023-04-11T03:09:32.394Z,32.80
2023-04-11T03:12:01.351Z,33.04
2023-04-11T03:14:29.770Z,33.13
2023-04-11T03:16:57.943Z,33.11
2023-04-11T03:19:26.550Z,33.28
2023-04-11T03:21:54.657Z,32.97
2023-04-11T03:24:23.426Z,33.10
2023-04-11T03:26:52.934Z,32.85
2023-04-11T03:29:21.299Z,32.77
2023-04-11T03:31:49.437Z,33.22
2023-04-11T03:34:18.126Z,32.96
2023-04-11T03:36:46.212Z,33.16
2023-04-11T03:39:14.619Z,32.81
2023-04-11T03:41:42.724Z,33.06
2023-04-11T03:44:12.725Z,32.54
2023-04-11T03:46:40.906Z,32.92
2023-04-11T03:49:09.742Z,32.49
2023-04-11T03:51:37.797Z,32.48
2023-04-11T03:54:06.286Z,32.20
2023-04-11T03:56:34.564Z,32.24
2023-04-11T03:59:02.949Z,32.52
2023-04-11T04:01:32.604Z,32.28
2023-04-11T04:04:02.028Z,32.27
2023-04-11T04:06:30.595Z,32.06
2023-04-11T04:08:59.706Z,32.46
2023-04-11T04:11:27.958Z,32.08
2023-04-11T04:13:56.553Z,32.03
2023-04-11T04:16:24.971Z,32.45
2023-04-11T04:18:54.704Z,32.20
2023-04-11T04:21:26.894Z,32.46
2023-04-11T04:23:55.597Z,32.81
2023-04-11T04:26:25.258Z,32.61
2023-04-11T04:28:54.179Z,32.35
2023-04-11T04:31:25.786Z,32.74
2023-04-11T04:33:58.748Z,32.86
2023-04-11T04:36:26.892Z,32.90
2023-04-11T04:38:57.631Z,32.71
2023-04-11T04:41:25.786Z,33.29
2023-04-11T04:43:58.588Z,32.85
2023-04-11T04:46:26.961Z,32.96
2023-04-11T04:48:56.732Z,32.80
2023-04-11T04:51:24.890Z,32.83
2023-04-11T04:53:53.395Z,32.92
2023-04-11T04:56:21.519Z,33.01
2023-04-11T04:58:50.100Z,32.82
2023-04-11T05:01:18.338Z,32.89
2023-04-11T05:03:50.919Z,33.11
2023-04-11T05:06:20.585Z,32.26
2023-04-11T05:08:50.352Z,32.72
2023-04-11T05:11:18.585Z,32.46
2023-04-11T05:13:47.056Z,31.58
2023-04-11T05:16:15.204Z,31.37
2023-04-11T05:18:43.581Z,31.45
2023-04-11T05:21:12.020Z,31.53
2023-04-11T05:23:42.620Z,31.71
2023-04-11T05:26:11.396Z,31.59
2023-04-11T05:28:39.882Z,31.86
2023-04-11T05:31:08.728Z,31.83
2023-04-11T05:33:38.543Z,31.79
2023-04-11T05:36:07.801Z,31.31
2023-04-11T05:38:36.499Z,30.29
2023-04-11T05:41:06.563Z,29.54
2023-04-11T05:43:34.977Z,29.13
2023-04-11T05:46:03.534Z,28.59
2023-04-11T05:48:32.333Z,27.79
2023-04-11T05:51:01.608Z,26.59
2023-04-11T05:53:30.553Z,25.23
2023-04-11T05:55:59.134Z,24.20
2023-04-11T05:58:29.845Z,22.04
2023-04-11T06:00:59.547Z,20.53
2023-04-11T06:03:28.382Z,20.06
2023-04-11T06:05:56.787Z,20.10
2023-04-11T06:08:25.663Z,20.32
2023-04-11T06:10:53.842Z,20.25
2023-04-11T06:13:22.522Z,20.25
2023-04-11T06:15:52.051Z,19.48
2023-04-11T06:18:20.989Z,19.22
2023-04-11T06:20:49.634Z,19.92
2023-04-11T06:23:18.104Z,20.95
2023-04-11T06:25:46.369Z,21.56
2023-04-11T06:28:15.815Z,21.64
2023-04-11T06:30:44.012Z,21.45
2023-04-11T06:33:13.973Z,21.43
2023-04-11T06:35:42.231Z,20.95
2023-04-11T06:38:10.738Z,20.34
2023-04-11T06:40:38.962Z,20.87
2023-04-11T06:43:07.365Z,21.72
2023-04-11T06:45:35.774Z,22.18
2023-04-11T06:48:04.276Z,21.65
2023-04-11T06:50:33.887Z,21.68
2023-04-11T06:53:02.452Z,22.22
2023-04-11T06:55:31.018Z,21.92
2023-04-11T06:57:59.480Z,20.42
2023-04-11T07:00:28.179Z,19.08
2023-04-11T07:02:57.018Z,18.10
2023-04-11T07:05:26.272Z,18.74
2023-04-11T07:07:56.308Z,18.88
2023-04-11T07:10:25.359Z,19.13
2023-04-11T07:12:53.813Z,19.56
2023-04-11T07:15:23.883Z,19.48
2023-04-11T07:17:53.147Z,20.29
2023-04-11T07:20:21.854Z,20.51
2023-04-11T07:22:50.653Z,20.31
2023-04-11T07:25:22.771Z,19.86
2023-04-11T07:27:53.234Z,19.38
2023-04-11T07:30:21.529Z,19.09
2023-04-11T07:32:50.078Z,18.29
2023-04-11T07:35:18.448Z,18.04
2023-04-11T07:37:47.488Z,17.58
2023-04-11T07:40:15.737Z,16.91
2023-04-11T07:42:46.291Z,16.68
2023-04-11T07:45:14.577Z,17.31
2023-04-11T07:47:43.727Z,17.87
2023-04-11T07:50:12.594Z,18.66
2023-04-11T07:52:41.203Z,19.19
2023-04-11T07:55:10.065Z,19.28
2023-04-11T07:57:38.537Z,19.74
2023-04-11T08:00:11.709Z,19.13
2023-04-11T08:02:40.794Z,19.73
2023-04-11T08:05:10.636Z,19.55
2023-04-11T08:07:39.170Z,20.07
2023-04-11T08:10:08.709Z,20.26
2023-04-11T08:12:37.324Z,20.80
2023-04-11T08:15:06.271Z,20.26
2023-04-11T08:17:38.986Z,20.10
2023-04-11T08:20:09.450Z,19.97
2023-04-11T08:22:39.086Z,19.55
2023-04-11T08:25:09.648Z,19.95
2023-04-11T08:27:38.594Z,19.70
2023-04-11T08:30:08.482Z,19.81
2023-04-11T08:32:38.576Z,19.33
2023-04-11T08:35:07.526Z,18.56
2023-04-11T08:37:35.953Z,17.59
2023-04-11T08:40:07.210Z,17.10
2023-04-11T08:42:35.870Z,15.09
2023-04-11T08:45:08.683Z,14.18
2023-04-11T08:47:38.841Z,12.81
2023-04-11T08:50:08.472Z,11.97
2023-04-11T08:52:39.848Z,11.47
2023-04-11T08:55:08.602Z,10.40
2023-04-11T08:57:38.357Z,9.39
2023-04-11T09:00:14.951Z,9.30
2023-04-11T09:02:59.049Z,8.27
2023-04-11T09:05:28.954Z,9.70
2023-04-11T09:07:59.084Z,10.86
2023-04-11T09:10:27.856Z,10.13
2023-04-11T09:12:56.966Z,10.07
2023-04-11T09:15:26.573Z,10.10
2023-04-11T09:17:56.997Z,10.34
2023-04-11T09:20:30.421Z,10.25
2023-04-11T09:23:00.061Z,10.44
2023-04-11T09:25:28.774Z,10.30
2023-04-11T09:28:11.349Z,10.02
2023-04-11T09:30:39.688Z,10.23
2023-04-11T09:33:25.301Z,9.37
2023-04-11T09:35:56.014Z,9.84
2023-04-11T09:38:31.996Z,9.06
2023-04-11T09:41:01.084Z,8.58
2023-04-11T09:43:30.193Z,8.03
2023-04-11T09:46:11.126Z,6.86
2023-04-11T09:51:15.978Z,6.05
2023-04-11T09:53:53.543Z,5.51
2023-04-11T09:56:22.197Z,5.38
2023-04-11T09:58:51.595Z,5.97
2023-04-11T10:01:20.667Z,6.07
2023-04-11T10:03:51.219Z,6.18
2023-04-11T10:06:33.734Z,5.83
2023-04-11T10:09:09.749Z,5.68
2023-04-11T10:11:38.421Z,5.82
2023-04-11T10:14:06.926Z,6.19
2023-04-11T10:16:35.200Z,5.69
2023-04-11T10:19:27.625Z,4.99
2023-04-11T10:21:57.716Z,4.87
2023-04-11T10:24:26.852Z,4.85
2023-04-11T10:26:56.326Z,5.21
2023-04-11T10:29:53.281Z,5.17
2023-04-11T10:32:26.095Z,5.92
2023-04-11T10:35:23.824Z,5.69
2023-04-11T10:37:53.534Z,6.76
2023-04-11T10:40:22.978Z,7.42
2023-04-11T10:42:51.707Z,7.24
2023-04-11T10:45:22.224Z,6.48
2023-04-11T10:48:05.648Z,5.72
2023-04-11T10:50:40.972Z,5.63
2023-04-11T10:53:14.383Z,4.90
2023-04-11T10:55:48.068Z,4.96
2023-04-11T10:58:19.804Z,4.93
2023-04-11T11:01:26.188Z,4.30
2023-04-11T11:04:04.344Z,4.83
2023-04-11T11:06:46.089Z,4.68
2023-04-11T11:09:24.598Z,5.12
2023-04-11T11:12:09.576Z,5.68
2023-04-11T11:14:38.061Z,6.06
2023-04-11T11:17:06.684Z,5.81
2023-04-11T11:19:35.696Z,5.60
2023-04-11T11:22:06.262Z,5.49
2023-04-11T11:24:35.830Z,5.79
2023-04-11T11:27:04.429Z,6.15
2023-04-11T11:29:34.750Z,5.96
2023-04-11T11:32:04.379Z,6.15
2023-04-11T11:34:34.153Z,6.50
2023-04-11T11:37:04.751Z,7.03
2023-04-11T11:39:33.975Z,7.19
2023-04-11T11:42:03.918Z,7.55
2023-04-11T11:44:32.721Z,7.86
2023-04-11T11:47:05.081Z,8.07
2023-04-11T11:49:47.165Z,7.77
2023-04-11T11:52:34.163Z,7.61
2023-04-11T11:55:03.729Z,8.30
2023-04-11T11:57:34.703Z,8.12
2023-04-11T12:00:06.798Z,8.64
2023-04-11T12:02:36.796Z,8.80
2023-04-11T12:05:07.926Z,8.79
2023-04-11T12:07:39.151Z,8.87
2023-04-11T12:10:09.475Z,9.18
2023-04-11T12:12:41.516Z,9.21
2023-04-11T12:15:11.790Z,8.72
2023-04-11T12:17:40.872Z,9.19
2023-04-11T12:20:10.758Z,9.28
2023-04-11T12:22:39.554Z,9.40
2023-04-11T12:25:09.076Z,9.07
2023-04-11T12:27:39.635Z,9.41
2023-04-11T12:30:08.985Z,9.25
2023-04-11T12:32:39.070Z,9.31
2023-04-11T12:35:08.061Z,9.46
2023-04-11T12:37:36.686Z,9.51
2023-04-11T12:40:11.398Z,9.44
2023-04-11T12:42:55.231Z,9.58
2023-04-11T12:45:25.201Z,10.07
2023-04-11T12:47:53.957Z,10.40
2023-04-11T12:50:24.310Z,10.30
2023-04-11T12:52:54.035Z,10.14
2023-04-11T12:55:23.685Z,10.09
2023-04-11T12:57:54.007Z,9.52
2023-04-11T13:00:22.717Z,9.50
2023-04-11T13:02:51.495Z,9.47
2023-04-11T13:05:20.723Z,9.39
2023-04-11T13:07:49.827Z,9.60
2023-04-11T13:10:18.143Z,9.50
2023-04-11T13:12:48.589Z,9.63
2023-04-11T13:15:18.440Z,9.70
2023-04-11T13:17:47.313Z,9.57
2023-04-11T13:20:15.913Z,9.50
2023-04-11T13:22:44.802Z,9.53
2023-04-11T13:25:13.323Z,9.60
2023-04-11T13:27:42.660Z,10.12
2023-04-11T13:30:12.064Z,9.98
2023-04-11T13:32:42.197Z,9.92
2023-04-11T13:35:10.670Z,10.17
2023-04-11T13:37:39.269Z,10.72
2023-04-11T13:40:11.426Z,10.75
2023-04-11T13:42:40.296Z,10.85
2023-04-11T13:45:10.201Z,10.94
2023-04-11T13:47:39.196Z,10.89
2023-04-11T13:50:10.502Z,10.75
2023-04-11T13:52:39.046Z,11.36
2023-04-11T13:55:07.852Z,11.55
2023-04-11T13:57:36.386Z,11.86
2023-04-11T14:00:11.278Z,11.98
2023-04-11T14:02:40.787Z,12.20
2023-04-11T14:05:11.889Z,12.30
2023-04-11T14:07:40.636Z,12.70
2023-04-11T14:10:09.583Z,12.66
2023-04-11T14:12:38.402Z,12.46
2023-04-11T14:15:08.056Z,12.40
2023-04-11T14:17:36.647Z,12.57
2023-04-11T14:20:07.131Z,12.58
2023-04-11T14:22:37.074Z,12.48
2023-04-11T14:25:06.074Z,12.74
2023-04-11T14:27:34.797Z,12.91
2023-04-11T14:30:03.313Z,12.88
2023-04-11T14:32:31.908Z,13.08
2023-04-11T14:35:01.980Z,13.13
2023-04-11T14:37:32.004Z,13.68
2023-04-11T14:40:01.753Z,13.81
2023-04-11T14:42:30.379Z,14.16
2023-04-11T14:44:58.657Z,14.70
2023-04-11T14:47:27.471Z,14.97
2023-04-11T14:49:57.786Z,14.76
2023-04-11T14:52:26.490Z,15.32
2023-04-11T14:54:54.979Z,15.84
2023-04-11T14:57:25.007Z,15.97
2023-04-11T14:59:53.221Z,16.55
2023-04-11T15:02:22.174Z,16.49
2023-04-11T15:04:50.773Z,17.11
2023-04-11T15:07:19.324Z,17.04
2023-04-11T15:09:47.559Z,17.69
2023-04-11T15:12:16.099Z,17.76
2023-04-11T15:14:45.621Z,17.86
2023-04-11T15:17:14.195Z,18.27
2023-04-11T15:19:42.507Z,18.32
2023-04-11T15:22:11.070Z,18.78
2023-04-11T15:24:39.204Z,19.28
2023-04-11T15:27:07.794Z,19.05
2023-04-11T15:29:36.864Z,19.42
2023-04-11T15:32:07.136Z,19.47
2023-04-11T15:34:35.494Z,19.98
2023-04-11T15:37:04.024Z,20.00
2023-04-11T15:39:32.275Z,20.66
2023-04-11T15:42:01.709Z,20.19
2023-04-11T15:44:30.334Z,20.39
2023-04-11T15:46:59.170Z,20.70
2023-04-11T15:49:28.984Z,20.90
2023-04-11T15:51:57.709Z,20.92
2023-04-11T15:54:26.039Z,21.01
2023-04-11T15:56:54.947Z,21.30
2023-04-11T15:59:25.176Z,21.59
2023-04-11T16:01:53.841Z,21.27
2023-04-11T16:04:22.348Z,21.96
2023-04-11T16:06:52.686Z,21.86
2023-04-11T16:09:20.920Z,22.40
2023-04-11T16:11:49.609Z,22.66
2023-04-11T16:14:17.914Z,23.08
2023-04-11T16:16:47.379Z,22.86
2023-04-11T16:19:15.891Z,23.35
2023-04-11T16:21:44.621Z,23.52
2023-04-11T16:24:14.495Z,23.64
2023-04-11T16:26:43.196Z,24.15
2023-04-11T16:29:11.467Z,24.10
2023-04-11T16:31:40.239Z,24.61
2023-04-11T16:34:08.519Z,25.19
2023-04-11T16:36:36.997Z,25.49
2023-04-11T16:39:05.373Z,25.88
2023-04-11T16:41:37.311Z,25.57
2023-04-11T16:44:11.469Z,25.87
2023-04-11T16:46:40.498Z,25.79
2023-04-11T16:49:08.948Z,26.22
2023-04-11T16:51:38.197Z,26.28
2023-04-11T16:54:09.893Z,26.55
2023-04-11T16:56:39.978Z,26.82
2023-04-11T16:59:09.468Z,27.34
2023-04-11T17:01:38.188Z,27.96
2023-04-11T17:04:07.025Z,28.19
2023-04-11T17:06:37.156Z,28.63
2023-04-11T17:09:06.493Z,28.70
2023-04-11T17:11:37.329Z,28.88
2023-04-11T17:14:07.957Z,28.71
2023-04-11T17:16:36.801Z,29.12
2023-04-11T17:19:05.218Z,29.28
2023-04-11T17:21:33.800Z,29.31
2023-04-11T17:24:02.312Z,29.21
2023-04-11T17:26:30.953Z,29.01
2023-04-11T17:28:59.463Z,28.87
2023-04-11T17:31:29.579Z,28.62
2023-04-11T17:33:58.176Z,28.79
2023-04-11T17:36:28.582Z,28.75
2023-04-11T17:38:57.003Z,29.17
2023-04-11T17:41:25.765Z,29.54
2023-04-11T17:43:57.560Z,28.88
2023-04-11T17:46:26.297Z,29.29
2023-04-11T17:48:56.030Z,28.93
2023-04-11T17:51:24.588Z,29.15
2023-04-11T17:57:12.093Z,27.81
2023-04-11T17:59:45.930Z,28.79
2023-04-11T18:02:22.272Z,28.28
2023-04-11T18:04:54.176Z,28.14
2023-04-11T18:07:28.745Z,27.00
2023-04-11T18:09:59.501Z,28.04
2023-04-11T18:12:32.873Z,27.96
2023-04-11T18:15:01.696Z,27.99
2023-04-11T18:17:34.747Z,27.79
2023-04-11T18:20:08.798Z,27.52
2023-04-11T18:22:37.221Z,27.92
2023-04-11T18:25:07.491Z,27.81
2023-04-11T18:27:38.916Z,27.25
2023-04-11T18:30:15.343Z,27.04
2023-04-11T18:32:51.739Z,27.04
2023-04-11T18:35:27.719Z,27.36
2023-04-11T18:38:00.316Z,27.43
2023-04-11T18:40:36.098Z,27.49
2023-04-11T18:43:04.805Z,27.51
2023-04-11T18:45:37.056Z,27.50
2023-04-11T18:48:06.147Z,27.56
2023-04-11T18:50:39.068Z,27.25
2023-04-11T18:53:09.902Z,27.38
2023-04-11T18:55:41.776Z,27.42
2023-04-11T18:58:12.817Z,27.45
2023-04-11T19:00:43.994Z,27.19
2023-04-11T19:03:16.266Z,27.28
2023-04-11T19:05:47.159Z,26.87
2023-04-11T19:08:15.879Z,26.95
2023-04-11T19:10:44.907Z,26.83
2023-04-11T19:13:13.507Z,26.73
2023-04-11T19:15:42.664Z,26.75
2023-04-11T19:18:11.617Z,26.78
2023-04-11T19:20:40.764Z,26.63
2023-04-11T19:23:10.704Z,26.52
2023-04-11T19:25:39.905Z,26.75
2023-04-11T19:28:08.510Z,27.03
2023-04-11T19:30:37.188Z,26.96
2023-04-11T19:33:05.766Z,26.96
2023-04-11T19:35:34.623Z,26.75
2023-04-11T19:38:05.805Z,26.87
2023-04-11T19:40:36.058Z,26.50
2023-04-11T19:43:04.703Z,26.75
2023-04-11T19:45:34.656Z,26.50
2023-04-11T19:48:03.187Z,26.55
2023-04-11T19:50:32.193Z,26.78
2023-04-11T19:53:01.608Z,26.79
2023-04-11T19:55:30.274Z,26.58
2023-04-11T19:58:00.113Z,26.46
2023-04-11T20:00:32.055Z,26.73
2023-04-11T20:03:00.517Z,26.72
2023-04-11T20:05:32.181Z,26.66
2023-04-11T20:08:00.499Z,25.19
2023-04-11T20:10:29.375Z,26.71
2023-04-11T20:12:59.291Z,26.43
2023-04-11T20:15:27.971Z,26.81
2023-04-11T20:17:56.600Z,26.93
2023-04-11T20:20:28.082Z,26.72
2023-04-11T20:22:56.435Z,26.91
2023-04-11T20:25:25.208Z,27.31
2023-04-11T20:27:53.414Z,27.49
2023-04-11T20:30:23.384Z,27.20
2023-04-11T20:32:51.620Z,27.69
2023-04-11T20:35:20.491Z,27.52
2023-04-11T20:37:49.915Z,27.42
2023-04-11T20:40:18.940Z,27.26
2023-04-11T20:42:47.590Z,27.45
2023-04-11T20:45:17.344Z,27.49
2023-04-11T20:47:47.820Z,27.25
2023-04-11T20:50:17.803Z,27.50
2023-04-11T20:52:48.234Z,27.36
2023-04-11T20:55:16.723Z,27.63
2023-04-11T20:57:45.885Z,27.50
2023-04-11T21:00:18.599Z,27.40
2023-04-11T21:02:50.579Z,26.98
2023-04-11T21:05:20.717Z,27.06
2023-04-11T21:07:48.951Z,27.36
2023-04-11T21:10:19.323Z,27.33
2023-04-11T21:12:51.765Z,27.25
2023-04-11T21:15:21.176Z,27.13
2023-04-11T21:17:52.377Z,27.09
2023-04-11T21:20:22.373Z,27.30
2023-04-11T21:22:52.936Z,27.46
2023-04-11T21:25:21.940Z,27.25
2023-04-11T21:27:50.368Z,27.38
2023-04-11T21:30:18.876Z,27.37
2023-04-11T21:32:47.221Z,27.42
2023-04-11T21:35:17.151Z,27.11
2023-04-11T21:37:47.712Z,27.29
2023-04-11T21:40:17.648Z,27.29
2023-04-11T21:42:46.045Z,27.32
2023-04-11T21:45:14.731Z,27.28
2023-04-11T21:47:43.025Z,27.40
2023-04-11T21:50:12.656Z,27.23
2023-04-11T21:52:43.504Z,27.08
2023-04-11T21:55:12.645Z,27.11
2023-04-11T21:57:40.963Z,27.31
2023-04-11T22:00:11.916Z,27.04
2023-04-11T22:02:40.291Z,27.20
2023-04-11T22:05:10.056Z,27.27
2023-04-11T22:07:47.438Z,27.15
2023-04-11T22:10:24.011Z,26.72
2023-04-11T22:12:54.510Z,27.05
2023-04-11T22:15:24.312Z,26.94
2023-04-11T22:17:54.548Z,26.86
2023-04-11T22:20:23.240Z,26.92
2023-04-11T22:22:51.380Z,26.75
2023-04-11T22:25:22.715Z,26.49
2023-04-11T22:27:54.410Z,26.67
2023-04-11T22:30:24.428Z,26.79
2023-04-11T22:32:54.413Z,26.82
2023-04-11T22:35:24.867Z,26.74
2023-04-11T22:37:53.910Z,26.56
2023-04-11T22:40:23.962Z,26.36
2023-04-11T22:42:53.023Z,26.62
2023-04-11T22:45:22.712Z,26.65
2023-04-11T22:47:54.740Z,26.59
2023-04-11T22:50:23.758Z,26.62
2023-04-11T22:52:51.990Z,26.71
2023-04-11T22:55:21.244Z,26.57
2023-04-11T22:57:50.971Z,26.61
2023-04-11T23:00:22.014Z,26.41
2023-04-11T23:02:51.257Z,26.76
2023-04-11T23:05:20.887Z,26.32
2023-04-11T23:07:49.258Z,26.69
2023-04-11T23:10:18.941Z,26.68
2023-04-11T23:12:48.089Z,26.49
2023-04-11T23:15:18.641Z,26.06
2023-04-11T23:17:46.931Z,26.51
2023-04-11T23:20:15.853Z,26.68
2023-04-11T23:22:44.150Z,26.39
2023-04-11T23:25:14.192Z,26.26
2023-04-11T23:27:42.977Z,26.54
2023-04-11T23:30:12.638Z,26.73
2023-04-11T23:32:43.033Z,26.44
2023-04-11T23:35:11.922Z,26.46
2023-04-11T23:37:41.012Z,26.72
2023-04-11T23:40:14.092Z,26.44
2023-04-11T23:42:42.715Z,26.24
2023-04-11T23:45:12.775Z,26.46
2023-04-11T23:47:42.402Z,26.54
2023-04-11T23:50:12.272Z,26.65
2023-04-11T23:52:40.892Z,26.90
2023-04-11T23:55:10.198Z,27.05
2023-04-11T23:57:38.301Z,26.78
